Time;durP1;ratioP1;P1;durP2;ratioP2;P2;SDS_P1;SDS_P2;PMS_P1;PMS_P2;Temp;Humidity;BMP_temperature;BMP_pressure;BME280_temperature;BME280_humidity;BME280_pressure;Samples;Min_cycle;Max_cycle;Signal;HPM_P1;HPM_P2
2022/03/17 00:02:32;;;;;;;12.93;11.17;;;4.60;99.90;5.00;97745.00;;;;5064170;28;20462;-68
2022/03/17 00:05:21;;;;;;;12.77;11.47;;;4.60;99.90;4.80;97736.00;;;;5053158;28;20927;-67
2022/03/17 00:08:10;;;;;;;13.97;11.57;;;4.50;99.90;4.90;97747.00;;;;5045993;28;20432;-67
2022/03/17 00:10:59;;;;;;;14.20;10.93;;;4.50;99.90;4.70;97742.00;;;;5051778;28;20422;-68
2022/03/17 00:13:49;;;;;;;14.03;11.40;;;4.50;99.90;4.90;97744.00;;;;5051690;28;20435;-68
2022/03/17 00:16:38;;;;;;;15.00;11.70;;;4.50;99.90;4.90;97735.00;;;;5051472;28;20439;-68
2022/03/17 00:19:27;;;;;;;15.77;11.90;;;4.50;99.90;4.90;97726.00;;;;5065899;28;20870;-67
2022/03/17 00:22:16;;;;;;;20.43;12.80;;;4.40;99.90;5.00;97739.00;;;;5055247;28;20459;-68
2022/03/17 00:25:07;;;;;;;16.13;11.53;;;4.50;99.90;5.00;97736.00;;;;5051584;28;20435;-68
2022/03/17 00:27:55;;;;;;;14.40;11.87;;;4.50;99.90;4.90;97743.00;;;;5051417;28;20212;-68
2022/03/17 00:30:45;;;;;;;13.40;10.80;;;4.50;99.90;4.50;97741.00;;;;5051192;28;20442;-68
2022/03/17 00:33:34;;;;;;;21.33;12.80;;;4.40;99.90;4.50;97735.00;;;;5053491;28;20431;-68
2022/03/17 00:36:23;;;;;;;13.73;10.80;;;4.30;99.90;4.30;97739.00;;;;5061882;28;20428;-68
2022/03/17 00:39:12;;;;;;;11.67;9.97;;;4.30;99.90;3.80;97742.00;;;;5063253;28;20431;-67
2022/03/17 00:42:01;;;;;;;11.63;10.40;;;4.10;99.90;3.80;97734.00;;;;5041974;28;20475;-68
2022/03/17 00:44:51;;;;;;;15.37;11.43;;;4.00;99.90;4.10;97737.00;;;;5058348;28;20437;-68
2022/03/17 00:47:42;;;;;;;14.67;11.30;;;3.90;99.90;4.20;97742.00;;;;5070961;28;20442;-68
2022/03/17 00:50:31;;;;;;;18.07;12.77;;;3.90;99.90;4.20;97749.00;;;;5068407;28;20438;-67
2022/03/17 00:53:19;;;;;;;17.33;12.57;;;3.80;99.90;3.90;97742.00;;;;5070141;28;20493;-68
2022/03/17 00:56:09;;;;;;;12.43;10.87;;;3.80;99.90;3.90;97744.00;;;;5070223;28;20461;-68
2022/03/17 00:58:57;;;;;;;13.67;11.90;;;3.70;99.90;4.10;97741.00;;;;5071572;28;20823;-68
2022/03/17 01:01:46;;;;;;;14.83;12.23;;;3.70;99.90;4.00;97747.00;;;;5071579;23;20489;-90
2022/03/17 01:04:37;;;;;;;14.37;11.13;;;3.70;99.90;3.70;97752.00;;;;5074567;28;20438;-89
2022/03/17 01:07:26;;;;;;;14.00;10.10;;;3.60;99.90;3.40;97760.00;;;;5059293;28;20936;-88
2022/03/17 01:10:17;;;;;;;13.20;10.93;;;3.50;99.90;3.60;97770.00;;;;5055931;28;20459;-91
2022/03/17 01:13:06;;;;;;;15.57;11.07;;;3.40;99.90;3.70;97775.00;;;;5055044;28;20454;-89
2022/03/17 01:15:56;;;;;;;19.20;12.40;;;3.40;99.90;3.60;97776.00;;;;5057393;28;20882;-89
2022/03/17 01:18:44;;;;;;;15.83;13.00;;;3.30;99.90;3.20;97782.00;;;;5079676;28;20497;-88
2022/03/17 01:21:35;;;;;;;14.73;11.50;;;3.20;99.90;3.10;97776.00;;;;5057594;28;20427;-88
2022/03/17 01:24:24;;;;;;;13.57;11.93;;;3.10;99.90;3.20;97770.00;;;;5069194;28;20427;-88
2022/03/17 01:27:13;;;;;;;13.37;11.93;;;3.00;99.90;3.50;97762.00;;;;5055023;28;20438;-90
2022/03/17 01:30:05;;;;;;;14.47;11.40;;;3.10;99.90;3.50;97755.00;;;;5061813;28;20919;-88
2022/03/17 01:32:54;;;;;;;16.73;12.63;;;3.10;99.90;3.20;97761.00;;;;5072100;28;20458;-89
2022/03/17 01:35:42;;;;;;;13.93;10.93;;;3.10;99.90;2.40;97756.00;;;;5065158;28;20422;-88
2022/03/17 01:38:33;;;;;;;12.67;9.33;;;2.90;99.90;1.90;97752.00;;;;5060889;28;20431;-91
2022/03/17 01:41:22;;;;;;;13.77;11.67;;;2.60;99.90;2.10;97759.00;;;;5054751;28;20429;-89
2022/03/17 01:44:11;;;;;;;17.93;12.47;;;2.40;99.90;2.50;97770.00;;;;5067746;28;20434;-90
2022/03/17 01:50:15;;;;;;;14.87;11.33;;;2.40;99.90;2.60;97767.00;;;;5068096;28;20827;-88
2022/03/17 01:53:04;;;;;;;15.03;11.87;;;2.40;99.90;2.60;97765.00;;;;5077345;28;20431;-88
2022/03/17 01:55:57;;;;;;;15.50;11.70;;;2.40;99.90;2.70;97762.00;;;;5070687;28;20759;-88
2022/03/17 01:58:46;;;;;;;17.00;13.30;;;2.40;99.90;2.40;97770.00;;;;5056691;28;20435;-88
2022/03/17 02:01:35;;;;;;;14.70;11.00;;;2.40;99.90;2.40;97761.00;;;;5064846;28;20453;-88
2022/03/17 02:04:25;;;;;;;15.93;12.43;;;2.40;99.90;2.50;97759.00;;;;5056277;28;20430;-91
2022/03/17 02:07:14;;;;;;;13.70;11.70;;;2.40;99.90;2.70;97752.00;;;;5053466;28;20454;-88
2022/03/17 02:10:05;;;;;;;17.50;13.17;;;2.40;99.90;2.50;97756.00;;;;5054682;28;20424;-88
2022/03/17 02:13:09;;;;;;;14.60;11.67;;;2.40;99.90;2.10;97773.00;;;;5067792;28;20460;-88
2022/03/17 02:16:02;;;;;;;12.60;9.43;;;2.30;99.90;1.30;97759.00;;;;5062314;28;20430;-88
2022/03/17 02:18:50;;;;;;;15.40;12.27;;;2.10;99.90;1.20;97768.00;;;;5061947;28;20428;-88
2022/03/17 02:21:39;;;;;;;10.30;8.00;;;1.90;99.90;1.30;97772.00;;;;5053732;28;20490;-88
2022/03/17 02:27:41;;;;;;;15.90;11.67;;;1.80;99.90;1.60;97778.00;;;;5057750;28;20427;-90
2022/03/17 02:30:31;;;;;;;11.30;9.13;;;1.70;99.90;1.10;97777.00;;;;5062532;28;20426;-88
2022/03/17 02:33:20;;;;;;;18.70;10.87;;;1.60;99.90;1.30;97786.00;;;;5063804;28;20974;-88
2022/03/17 02:36:09;;;;;;;16.73;12.23;;;1.60;99.90;1.60;97785.00;;;;5068166;28;20489;-88
2022/03/17 02:38:58;;;;;;;15.33;11.87;;;1.50;99.90;2.00;97796.00;;;;5068124;28;20426;-89
2022/03/17 02:41:49;;;;;;;16.17;12.90;;;1.60;99.90;2.10;97798.00;;;;5051295;28;20450;-90
2022/03/17 02:44:38;;;;;;;14.60;12.57;;;1.70;99.90;1.70;97794.00;;;;5059480;28;20431;-88
2022/03/17 02:47:28;;;;;;;14.17;11.73;;;1.70;99.90;1.40;97799.00;;;;5072536;28;20513;-88
2022/03/17 02:50:17;;;;;;;15.97;12.23;;;1.60;99.90;1.70;97792.00;;;;5063950;28;20779;-88
2022/03/17 02:53:08;;;;;;;15.23;12.07;;;1.50;99.90;1.30;97799.00;;;;5066435;28;20451;-89
2022/03/17 02:55:56;;;;;;;11.97;9.90;;;1.40;99.90;1.00;97796.00;;;;5077723;28;20449;-88
2022/03/17 02:58:47;;;;;;;19.90;11.70;;;1.30;99.90;0.90;97790.00;;;;5059528;28;20411;-89
2022/03/17 03:01:36;;;;;;;15.90;12.50;;;1.20;99.90;1.10;97792.00;;;;5055321;28;20548;-89
2022/03/17 03:04:25;;;;;;;16.30;12.50;;;1.20;99.90;1.20;97805.00;;;;5056115;28;20463;-88
2022/03/17 03:07:14;;;;;;;16.77;10.90;;;1.20;99.90;0.60;97792.00;;;;5054598;28;20439;-89
2022/03/17 03:10:04;;;;;;;15.67;9.57;;;1.10;99.90;0.50;97792.00;;;;5055870;28;20424;-88
2022/03/17 03:12:53;;;;;;;13.23;9.83;;;0.90;99.90;0.50;97789.00;;;;5054833;28;20458;-88
2022/03/17 03:15:43;;;;;;;15.87;11.93;;;0.90;99.90;0.70;97793.00;;;;5064393;28;20427;-89
2022/03/17 03:18:32;;;;;;;16.83;12.63;;;0.90;99.90;0.90;97780.00;;;;5055748;28;20435;-91
2022/03/17 03:21:21;;;;;;;14.43;10.87;;;0.90;99.90;0.80;97794.00;;;;5055607;28;20427;-88
2022/03/17 03:24:09;;;;;;;14.93;11.40;;;0.90;99.90;0.30;97791.00;;;;5060983;28;20473;-88
2022/03/17 03:26:58;;;;;;;14.80;12.10;;;0.80;99.90;0.60;97803.00;;;;5065826;28;20947;-88
2022/03/17 03:29:47;;;;;;;15.33;11.90;;;0.90;99.90;1.00;97797.00;;;;5068038;28;20427;-88
2022/03/17 03:32:39;;;;;;;17.03;12.77;;;0.90;99.90;1.20;97807.00;;;;5055090;28;20445;-91
2022/03/17 03:38:34;;;;;;;13.63;11.20;;;1.00;99.90;1.00;97808.00;;;;5065200;28;20804;-88
2022/03/17 03:41:23;;;;;;;14.67;12.17;;;1.10;99.90;0.90;97815.00;;;;5059049;28;20440;-89
2022/03/17 03:44:12;;;;;;;15.70;12.07;;;1.00;99.90;0.70;97806.00;;;;5059137;28;20467;-88
2022/03/17 03:47:01;;;;;;;16.20;12.57;;;0.90;99.90;0.70;97817.00;;;;5054553;28;20430;-88
2022/03/17 03:49:52;;;;;;;14.60;11.83;;;0.80;99.90;0.60;97817.00;;;;5061726;28;20419;-88
2022/03/17 03:52:40;;;;;;;16.10;12.07;;;0.70;99.90;0.60;97808.00;;;;5074654;28;20554;-88
2022/03/17 03:55:30;;;;;;;16.73;13.80;;;0.70;99.90;0.70;97817.00;;;;5074841;28;20507;-88
2022/03/17 03:58:18;;;;;;;14.60;11.07;;;0.90;99.90;0.50;97813.00;;;;5073007;28;20426;-88
2022/03/17 04:01:07;;;;;;;14.90;12.30;;;0.70;99.90;0.50;97810.00;;;;5072501;28;20446;-88
2022/03/17 04:03:56;;;;;;;19.73;12.40;;;0.70;99.90;0.80;97814.00;;;;5073059;28;20466;-88
2022/03/17 04:06:48;;;;;;;20.70;13.23;;;0.90;99.90;0.90;97821.00;;;;5058548;28;20426;-88
2022/03/17 04:09:40;;;;;;;18.97;13.30;;;1.40;99.90;1.00;97811.00;;;;5053485;28;20428;-91
2022/03/17 04:12:29;;;;;;;14.47;11.70;;;1.00;99.90;1.00;97806.00;;;;5063625;28;20453;-89
2022/03/17 04:15:18;;;;;;;15.83;12.37;;;0.70;99.90;0.80;97819.00;;;;5072760;28;20419;-89
2022/03/17 04:18:07;;;;;;;21.87;12.97;;;0.80;99.90;0.70;97807.00;;;;5072728;28;20466;-89
2022/03/17 04:20:55;;;;;;;16.70;13.53;;;0.80;99.90;0.80;97818.00;;;;5072148;28;20422;-91
2022/03/17 04:23:46;;;;;;;17.33;13.53;;;1.00;99.90;0.80;97820.00;;;;5075122;28;20532;-87
2022/03/17 04:26:37;;;;;;;19.67;13.60;;;0.80;99.90;0.80;97816.00;;;;5068516;28;20463;-88
2022/03/17 04:29:28;;;;;;;15.90;11.53;;;1.10;99.90;0.90;97817.00;;;;5067033;28;20796;-88
2022/03/17 04:32:16;;;;;;;15.87;12.87;;;0.90;99.90;0.30;97803.00;;;;5053583;28;20435;-88
2022/03/17 04:35:08;;;;;;;17.83;12.53;;;0.60;99.90;0.00;97804.00;;;;5062076;28;20423;-88
2022/03/17 04:37:56;;;;;;;17.93;13.33;;;0.50;99.90;0.20;97805.00;;;;5067894;28;20419;-88
2022/03/17 04:40:49;;;;;;;17.97;12.93;;;0.40;99.90;0.40;97801.00;;;;5056657;28;20415;-88
2022/03/17 04:43:39;;;;;;;17.83;13.80;;;1.30;99.90;0.20;97797.00;;;;5053201;28;20467;-90
2022/03/17 04:46:27;;;;;;;16.20;13.43;;;0.30;99.90;0.10;97798.00;;;;5053721;28;20431;-89
2022/03/17 04:49:16;;;;;;;15.07;11.57;;;0.20;99.90;-0.30;97802.00;;;;5054312;28;20451;-90
2022/03/17 04:53:26;;;;;;;18.00;13.73;;;0.10;99.90;-0.30;97795.00;;;;5055589;28;20451;-88
2022/03/17 04:55:15;;;;;;;13.80;10.83;;;0.00;99.90;-0.40;97801.00;;;;5054880;28;20442;-88
2022/03/17 04:58:06;;;;;;;14.03;11.80;;;0.50;99.90;-0.10;97799.00;;;;5075226;28;20438;-88
2022/03/17 05:00:55;;;;;;;16.43;12.80;;;0.60;99.90;-0.10;97799.00;;;;5070630;28;20448;-88
2022/03/17 05:03:44;;;;;;;15.20;10.87;;;0.60;99.90;0.10;97813.00;;;;5070583;28;20474;-90
2022/03/17 05:06:34;;;;;;;22.97;15.93;;;0.30;99.90;0.30;97810.00;;;;5063727;28;20444;-89
2022/03/17 05:09:24;;;;;;;15.83;11.80;;;0.20;99.90;0.50;97808.00;;;;5068855;28;20418;-89
2022/03/17 05:12:13;;;;;;;14.47;11.87;;;0.70;99.90;0.60;97825.00;;;;5053645;28;20435;-89
2022/03/17 05:15:04;;;;;;;17.40;13.17;;;0.30;99.90;0.60;97823.00;;;;5067585;28;20497;-86
2022/03/17 05:17:53;;;;;;;20.83;15.10;;;0.30;99.90;0.70;97825.00;;;;5067380;28;20473;-87
2022/03/17 05:20:43;;;;;;;20.47;13.33;;;0.60;99.90;0.80;97826.00;;;;5072498;28;20541;-87
2022/03/17 05:23:32;;;;;;;16.53;13.17;;;0.40;99.90;0.80;97831.00;;;;5066547;28;20446;-87
2022/03/17 05:26:21;;;;;;;21.17;15.67;;;0.40;99.90;0.80;97841.00;;;;5067591;28;20426;-87
2022/03/17 05:29:12;;;;;;;19.03;15.20;;;0.50;99.90;0.40;97827.00;;;;5070712;28;20419;-87
2022/03/17 05:32:02;;;;;;;19.07;16.13;;;0.50;99.90;0.30;97832.00;;;;5068303;28;20967;-87
2022/03/17 05:34:51;;;;;;;14.67;12.93;;;0.70;99.90;0.10;97836.00;;;;5061124;28;20474;-87
2022/03/17 05:37:41;;;;;;;16.13;12.97;;;0.40;99.90;-0.20;97827.00;;;;5065460;28;20449;-87
2022/03/17 05:40:30;;;;;;;18.53;14.27;;;0.20;99.90;0.10;97836.00;;;;5060343;28;20799;-88
2022/03/17 05:43:19;;;;;;;10.93;8.67;;;0.20;99.90;-0.20;97826.00;;;;5067015;28;20458;-86
2022/03/17 05:46:07;;;;;;;19.80;12.97;;;0.60;99.90;-0.30;97832.00;;;;5049407;28;20435;-86
2022/03/17 05:48:58;;;;;;;14.87;12.13;;;0.60;99.90;-0.30;97831.00;;;;5048434;28;20464;-87
2022/03/17 05:51:46;;;;;;;20.33;14.43;;;0.60;99.90;0.00;97837.00;;;;5048505;28;20448;-87
2022/03/17 05:54:35;;;;;;;23.77;15.33;;;-1.10;99.90;0.40;97849.00;;;;5048618;28;20428;-86
2022/03/17 05:57:24;;;;;;;27.80;13.97;;;0.80;99.90;0.50;97853.00;;;;5067419;28;20426;-87
2022/03/17 06:00:17;;;;;;;23.07;16.93;;;0.30;99.90;0.60;97855.00;;;;5063047;28;20505;-86
2022/03/17 06:03:06;;;;;;;25.60;15.43;;;0.30;99.90;0.40;97857.00;;;;5058869;28;20859;-87
2022/03/17 06:05:56;;;;;;;20.67;16.70;;;0.70;99.90;0.40;97851.00;;;;5054288;28;20478;-85
2022/03/17 06:08:45;;;;;;;18.13;12.83;;;0.40;99.90;0.30;97844.00;;;;5062353;28;20835;-86
2022/03/17 06:11:34;;;;;;;16.67;13.57;;;0.40;99.90;0.60;97857.00;;;;5053028;28;20798;-86
2022/03/17 06:14:24;;;;;;;19.27;14.87;;;0.70;99.90;0.80;97870.00;;;;5050186;28;20966;-87
2022/03/17 06:17:13;;;;;;;17.07;12.60;;;0.50;99.90;0.70;97869.00;;;;5059115;28;20435;-86
2022/03/17 06:20:02;;;;;;;12.37;10.63;;;0.60;99.90;0.30;97878.00;;;;5054207;28;20497;-86
2022/03/17 06:22:55;;;;;;;15.37;11.10;;;0.60;99.90;0.40;97881.00;;;;5056460;28;20457;-86
2022/03/17 06:25:44;;;;;;;15.90;12.93;;;0.70;99.90;0.60;97875.00;;;;5059769;28;20542;-87
2022/03/17 06:28:32;;;;;;;21.27;15.07;;;0.50;99.90;0.90;97860.00;;;;5066136;28;20449;-85
2022/03/17 06:31:21;;;;;;;23.60;14.00;;;0.90;99.90;1.00;97871.00;;;;5063676;28;20408;-85
2022/03/17 06:34:10;;;;;;;24.67;14.80;;;0.70;99.90;1.20;97875.00;;;;5062805;28;20445;-85
2022/03/17 06:37:00;;;;;;;21.27;14.63;;;0.80;99.90;1.40;97881.00;;;;5062311;28;20455;-86
2022/03/17 06:39:50;;;;;;;28.00;15.47;;;0.90;99.90;1.50;97875.00;;;;5063803;28;20435;-85
2022/03/17 06:42:39;;;;;;;22.80;16.47;;;1.00;99.90;1.60;97868.00;;;;5061391;28;20442;-85
2022/03/17 06:45:28;;;;;;;22.77;15.37;;;1.10;99.90;1.60;97873.00;;;;5066491;28;20554;-86
2022/03/17 06:48:17;;;;;;;16.73;14.90;;;1.20;99.90;1.80;97869.00;;;;5062573;28;20427;-86
2022/03/17 06:51:06;;;;;;;25.37;18.07;;;1.40;99.90;2.00;97889.00;;;;5061963;28;20943;-86
2022/03/17 06:53:55;;;;;;;21.83;14.60;;;1.40;99.90;2.20;97889.00;;;;5066757;28;20457;-86
2022/03/17 06:56:45;;;;;;;22.23;19.40;;;1.50;99.90;2.20;97883.00;;;;5053280;28;20435;-86
2022/03/17 06:59:34;;;;;;;19.73;14.17;;;1.70;99.90;2.00;97884.00;;;;5061613;28;20441;-86
2022/03/17 07:02:23;;;;;;;18.17;12.90;;;1.80;99.90;1.70;97871.00;;;;5071360;28;20454;-87
2022/03/17 07:05:12;;;;;;;21.37;15.33;;;1.80;99.90;1.90;97882.00;;;;5071463;28;20515;-86
2022/03/17 07:08:01;;;;;;;20.87;14.50;;;1.80;99.90;1.90;97876.00;;;;5071989;28;20411;-87
2022/03/17 07:10:52;;;;;;;33.03;14.27;;;1.80;99.90;1.80;97874.00;;;;5071819;28;20431;-87
2022/03/17 07:13:42;;;;;;;17.50;14.67;;;1.80;99.90;2.20;97883.00;;;;5067921;28;20454;-87
2022/03/17 07:16:31;;;;;;;19.03;14.10;;;1.90;99.90;2.30;97891.00;;;;5061533;28;20445;-86
2022/03/17 07:19:21;;;;;;;16.37;13.67;;;2.00;99.90;2.70;97889.00;;;;5071542;28;20429;-86
2022/03/17 07:22:10;;;;;;;20.23;16.13;;;2.20;99.90;3.00;97893.00;;;;5063872;28;20866;-86
2022/03/17 07:24:59;;;;;;;21.77;16.50;;;2.30;99.90;3.30;97891.00;;;;5059406;28;21009;-87
2022/03/17 07:27:49;;;;;;;22.33;14.83;;;2.50;99.90;3.60;97888.00;;;;5057284;28;20432;-86
2022/03/17 07:30:39;;;;;;;19.57;15.90;;;2.70;99.90;3.90;97887.00;;;;5054382;28;20424;-86
2022/03/17 07:33:28;;;;;;;21.43;16.33;;;3.00;99.90;4.30;97895.00;;;;5053149;28;20454;-87
2022/03/17 07:36:17;;;;;;;22.77;17.30;;;3.30;99.90;4.80;97899.00;;;;5065014;28;20421;-87
2022/03/17 07:39:08;;;;;;;27.30;18.90;;;3.50;99.90;4.90;97901.00;;;;5066386;28;20856;-85
2022/03/17 07:41:57;;;;;;;27.50;18.40;;;3.80;99.90;5.30;97895.00;;;;5062042;28;20447;-87
2022/03/17 07:44:46;;;;;;;29.00;17.90;;;4.10;99.90;5.60;97907.00;;;;5053454;28;20478;-87
2022/03/17 07:47:36;;;;;;;27.73;18.33;;;4.40;99.90;5.90;97902.00;;;;5062290;28;20529;-87
2022/03/17 07:50:25;;;;;;;23.73;18.70;;;4.70;99.90;6.00;97900.00;;;;5055340;28;20523;-86
2022/03/17 07:53:14;;;;;;;27.03;17.00;;;4.90;99.90;6.10;97906.00;;;;5066656;28;20220;-88
2022/03/17 07:56:04;;;;;;;29.30;19.03;;;5.10;99.90;6.40;97899.00;;;;5062674;28;20976;-87
2022/03/17 07:58:53;;;;;;;33.37;17.40;;;5.30;99.90;6.50;97897.00;;;;5068875;28;20207;-86
2022/03/17 08:01:42;;;;;;;25.07;17.53;;;5.50;99.90;6.50;97905.00;;;;5050394;28;20228;-87
2022/03/17 08:04:32;;;;;;;21.53;16.73;;;5.60;99.90;6.90;97903.00;;;;5051113;28;20205;-86
2022/03/17 08:07:21;;;;;;;21.87;16.30;;;5.80;99.90;7.00;97905.00;;;;5052986;28;20200;-87
2022/03/17 08:10:13;;;;;;;28.13;18.33;;;5.90;99.90;7.30;97904.00;;;;5062982;28;20591;-87
2022/03/17 08:13:05;;;;;;;22.70;16.60;;;6.10;99.90;7.30;97902.00;;;;5050074;28;20225;-85
2022/03/17 08:15:54;;;;;;;23.10;16.73;;;6.20;99.90;7.30;97899.00;;;;5050378;28;20200;-86
2022/03/17 08:18:43;;;;;;;25.60;16.00;;;6.40;99.90;7.40;97912.00;;;;5051482;28;20204;-85
2022/03/17 08:21:33;;;;;;;25.47;17.30;;;6.50;99.90;7.40;97908.00;;;;5052183;28;20205;-86
2022/03/17 08:24:22;;;;;;;23.90;17.30;;;6.60;99.90;7.60;97906.00;;;;5051585;28;20211;-86
2022/03/17 08:27:11;;;;;;;27.73;17.03;;;6.70;99.90;7.20;97900.00;;;;5051396;28;20204;-86
2022/03/17 08:30:05;;;;;;;22.20;16.07;;;6.80;99.90;7.50;97903.00;;;;5050905;28;20685;-86
2022/03/17 08:32:53;;;;;;;22.33;16.63;;;6.90;99.90;7.40;97905.00;;;;5050759;28;20230;-85
2022/03/17 08:35:43;;;;;;;20.63;16.20;;;7.00;99.90;8.00;97905.00;;;;5068056;28;20204;-86
2022/03/17 08:38:33;;;;;;;23.27;16.93;;;7.10;99.90;7.60;97897.00;;;;5063042;28;20204;-86
2022/03/17 08:41:22;;;;;;;26.77;16.43;;;7.10;99.90;7.60;97898.00;;;;5051614;28;20212;-85
2022/03/17 08:44:11;;;;;;;24.13;17.10;;;7.20;99.90;7.60;97889.00;;;;5050512;28;20196;-86
2022/03/17 08:50:07;;;;;;;27.27;16.20;;;7.30;99.90;8.60;97894.00;;;;5051104;28;20564;-86
2022/03/17 08:52:56;;;;;;;29.03;17.00;;;7.50;99.90;9.00;97892.00;;;;5050870;28;20235;-86
2022/03/17 08:55:46;;;;;;;22.90;15.97;;;7.70;99.90;8.90;97886.00;;;;5059305;28;20579;-86
2022/03/17 08:58:35;;;;;;;22.70;16.77;;;7.90;99.90;9.30;97899.00;;;;5067231;28;20251;-86
2022/03/17 09:01:24;;;;;;;21.33;15.53;;;8.10;99.90;9.20;97900.00;;;;5048972;28;20210;-86
2022/03/17 09:04:13;;;;;;;22.90;17.70;;;8.30;99.90;9.30;97896.00;;;;5049582;28;20760;-86
2022/03/17 09:07:04;;;;;;;25.90;17.17;;;8.50;99.90;10.00;97908.00;;;;5051173;28;20304;-85
2022/03/17 09:09:52;;;;;;;21.63;16.27;;;8.70;99.90;10.30;97912.00;;;;5053883;28;20215;-86
2022/03/17 09:12:43;;;;;;;23.53;16.80;;;8.90;99.90;10.70;97912.00;;;;5060418;28;20215;-86
2022/03/17 09:15:32;;;;;;;20.87;17.33;;;9.20;99.90;11.00;97914.00;;;;5062797;28;20279;-87
2022/03/17 09:18:21;;;;;;;21.63;15.50;;;9.40;99.90;10.70;97913.00;;;;5059592;28;20196;-86
2022/03/17 09:21:10;;;;;;;21.20;16.20;;;9.60;99.90;10.70;97913.00;;;;5050727;28;20215;-85
2022/03/17 09:24:00;;;;;;;17.43;15.63;;;9.80;99.20;11.20;97908.00;;;;5057781;28;20204;-85
2022/03/17 09:26:48;;;;;;;19.00;14.93;;;10.00;98.40;11.30;97904.00;;;;5061582;28;20227;-85
2022/03/17 09:29:40;;;;;;;23.17;15.50;;;10.10;96.50;11.40;97917.00;;;;5061080;28;20217;-85
2022/03/17 09:32:29;;;;;;;23.53;16.60;;;10.30;95.90;11.60;97925.00;;;;5059107;28;20227;-84
2022/03/17 09:35:18;;;;;;;25.03;16.63;;;10.40;95.60;11.90;97914.00;;;;5065000;28;20677;-84
2022/03/17 09:38:08;;;;;;;19.10;15.80;;;10.50;95.40;12.00;97921.00;;;;5056090;28;20205;-84
2022/03/17 09:40:58;;;;;;;20.13;15.57;;;10.70;94.60;12.40;97916.00;;;;5053153;28;20239;-85
2022/03/17 09:43:47;;;;;;;24.47;16.03;;;10.80;94.50;12.90;97910.00;;;;5049836;28;20704;-83
2022/03/17 09:46:40;;;;;;;18.27;15.90;;;11.10;94.20;13.00;97932.00;;;;5057803;28;20631;-84
2022/03/17 09:49:29;;;;;;;20.97;15.10;;;11.30;93.50;12.90;97916.00;;;;5067842;28;20215;-84
2022/03/17 09:52:20;;;;;;;21.40;15.80;;;11.50;92.10;13.00;97919.00;;;;5067532;28;20223;-84
2022/03/17 09:55:12;;;;;;;24.97;15.50;;;11.60;90.50;13.30;97913.00;;;;5069070;28;20669;-84
2022/03/17 09:58:02;;;;;;;18.80;15.60;;;11.80;89.80;13.10;97921.00;;;;5069174;28;20192;-84
2022/03/17 10:00:52;;;;;;;14.70;12.93;;;12.00;87.00;13.70;97912.00;;;;5073896;28;20219;-84
2022/03/17 10:03:43;;;;;;;13.77;10.13;;;12.20;82.70;14.10;97917.00;;;;5073625;28;20607;-84
2022/03/17 10:06:32;;;;;;;13.60;11.57;;;12.40;77.70;14.50;97921.00;;;;5072207;28;20238;-84
2022/03/17 10:09:21;;;;;;;22.77;12.40;;;12.60;75.80;14.80;97927.00;;;;5073736;28;20558;-84
2022/03/17 10:12:12;;;;;;;14.93;10.20;;;12.90;74.30;14.20;97924.00;;;;5072273;28;20227;-84
2022/03/17 10:15:02;;;;;;;16.43;11.43;;;13.10;66.80;14.30;97915.00;;;;5072598;28;20199;-84
2022/03/17 10:17:50;;;;;;;20.50;11.43;;;13.20;61.80;15.10;97925.00;;;;5072067;28;20210;-84
2022/03/17 10:20:41;;;;;;;16.73;13.23;;;13.30;64.60;15.20;97912.00;;;;5072054;28;20211;-84
2022/03/17 10:23:30;;;;;;;17.63;12.93;;;13.60;66.50;14.40;97916.00;;;;5071425;28;20285;-84
2022/03/17 10:26:39;;;;;;;14.43;11.73;;;13.60;63.10;14.80;97916.00;;;;5069154;28;20231;-83
2022/03/17 10:29:28;;;;;;;17.07;10.27;;;13.70;63.40;14.50;97931.00;;;;5052446;28;20212;-84
2022/03/17 10:32:18;;;;;;;16.27;11.70;;;13.60;60.40;14.10;97915.00;;;;5059629;28;20231;-83
2022/03/17 10:35:08;;;;;;;15.10;10.23;;;13.50;59.20;14.80;97912.00;;;;5066412;28;20265;-83
2022/03/17 10:37:58;;;;;;;15.37;12.10;;;13.50;59.30;14.00;97900.00;;;;5068553;28;20208;-84
2022/03/17 10:41:01;;;;;;;16.73;13.83;;;13.60;59.50;14.20;97897.00;;;;5059165;28;20207;-84
2022/03/17 10:44:00;;;;;;;16.90;11.80;;;13.50;60.70;15.00;97908.00;;;;5052892;28;20211;-84
2022/03/17 10:47:01;;;;;;;20.77;11.77;;;13.60;60.60;14.40;97904.00;;;;5052861;28;20225;-84
2022/03/17 10:50:05;;;;;;;14.97;12.67;;;13.70;59.40;15.40;97920.00;;;;5054126;28;20334;-84
2022/03/17 10:52:56;;;;;;;13.97;11.10;;;13.90;59.10;15.60;97904.00;;;;5051661;28;20241;-85
2022/03/17 10:55:49;;;;;;;14.53;10.83;;;14.10;58.80;16.10;97912.00;;;;5058616;28;20656;-84
2022/03/17 10:58:43;;;;;;;12.87;9.70;;;14.30;57.90;15.70;97906.00;;;;5073306;28;20199;-85
2022/03/17 11:01:42;;;;;;;15.07;10.77;;;14.60;56.80;17.10;97916.00;;;;5063825;28;20215;-84
2022/03/17 11:04:32;;;;;;;11.87;9.97;;;14.90;57.70;16.20;97902.00;;;;5070042;28;20697;-85
2022/03/17 11:07:23;;;;;;;13.70;11.40;;;15.50;55.70;16.50;97914.00;;;;5060306;28;20230;-84
2022/03/17 11:10:15;;;;;;;15.40;10.80;;;15.80;55.40;16.60;97904.00;;;;5062270;28;20220;-84
2022/03/17 11:13:09;;;;;;;14.90;12.07;;;15.80;54.30;17.50;97903.00;;;;5066415;28;20216;-85
2022/03/17 11:16:05;;;;;;;14.97;12.40;;;16.00;55.40;16.90;97914.00;;;;5068885;28;20211;-85
2022/03/17 11:18:55;;;;;;;12.77;10.47;;;16.10;54.20;17.10;97903.00;;;;5052042;28;20254;-85
2022/03/17 11:21:48;;;;;;;10.43;8.00;;;16.20;54.20;17.90;97894.00;;;;5050916;28;20242;-85
2022/03/17 11:24:38;;;;;;;10.00;8.63;;;16.30;51.60;18.70;97900.00;;;;5056071;28;20208;-85
2022/03/17 11:27:27;;;;;;;14.50;9.80;;;16.60;51.80;19.30;97885.00;;;;5059935;28;20223;-86
2022/03/17 11:30:18;;;;;;;10.67;8.93;;;16.90;52.20;18.80;97893.00;;;;5068429;28;20196;-85
2022/03/17 11:33:23;;;;;;;10.27;8.47;;;17.20;50.70;18.60;97902.00;;;;5060550;28;20218;-86
2022/03/17 11:36:21;;;;;;;13.70;9.87;;;17.40;49.90;19.00;97903.00;;;;5065956;28;20192;-86
2022/03/17 11:39:20;;;;;;;11.53;9.20;;;17.40;50.30;19.40;97887.00;;;;5065065;28;20215;-86
2022/03/17 11:42:31;;;;;;;10.87;9.50;;;17.60;50.40;19.20;97889.00;;;;5064973;28;20219;-85
2022/03/17 11:45:42;;;;;;;16.73;10.07;;;17.70;49.70;19.40;97897.00;;;;5050881;28;20220;-86
2022/03/17 11:48:37;;;;;;;14.60;11.47;;;18.00;49.50;19.20;97884.00;;;;5059709;28;20223;-86
2022/03/17 11:51:27;;;;;;;11.77;10.37;;;18.00;48.90;19.20;97883.00;;;;5062236;28;20196;-86
2022/03/17 11:54:16;;;;;;;12.70;10.30;;;18.00;48.60;20.00;97876.00;;;;5059515;28;20208;-86
2022/03/17 11:57:06;;;;;;;17.83;11.20;;;18.30;48.90;20.00;97902.00;;;;5063616;28;20227;-86
2022/03/17 11:59:56;;;;;;;15.17;11.57;;;18.50;48.30;19.00;97892.00;;;;5071645;28;20204;-85
2022/03/17 12:02:47;;;;;;;14.90;11.47;;;18.30;47.30;18.90;97881.00;;;;5057688;28;20232;-85
2022/03/17 12:05:42;;;;;;;14.30;10.13;;;18.20;47.50;19.70;97895.00;;;;5059825;28;20206;-85
2022/03/17 12:08:36;;;;;;;11.27;9.67;;;18.30;48.30;19.40;97874.00;;;;5059881;28;20236;-85
2022/03/17 12:11:26;;;;;;;11.00;9.80;;;18.40;45.40;20.40;97875.00;;;;5065306;28;20587;-85
2022/03/17 12:14:22;;;;;;;12.50;9.93;;;18.60;46.20;21.00;97875.00;;;;5071941;28;20204;-86
2022/03/17 12:17:18;;;;;;;15.00;11.47;;;18.80;46.50;20.10;97878.00;;;;5050579;28;20226;-86
2022/03/17 12:20:14;;;;;;;14.03;11.33;;;19.10;45.30;19.50;97872.00;;;;5050877;28;20208;-85
2022/03/17 12:23:03;;;;;;;13.53;10.87;;;19.20;45.50;18.20;97862.00;;;;5051221;28;20224;-85
2022/03/17 12:26:04;;;;;;;15.83;10.10;;;18.50;45.10;16.20;97845.00;;;;5065818;28;20212;-86
2022/03/17 12:28:53;;;;;;;13.83;10.47;;;18.40;43.90;16.80;97861.00;;;;5066131;28;20600;-85
2022/03/17 12:31:43;;;;;;;10.27;9.17;;;17.90;44.30;17.90;97847.00;;;;5050911;28;20774;-86
2022/03/17 12:34:35;;;;;;;11.67;10.47;;;17.60;45.30;19.80;97859.00;;;;5064134;28;20197;-86
2022/03/17 12:37:27;;;;;;;12.03;10.73;;;18.00;47.10;21.40;97867.00;;;;5075157;28;20664;-86
2022/03/17 12:40:21;;;;;;;14.10;10.70;;;18.60;46.80;21.50;97857.00;;;;5079229;28;20210;-86
2022/03/17 12:43:17;;;;;;;13.37;11.33;;;19.20;45.80;22.00;97849.00;;;;5080193;28;20281;-86
2022/03/17 12:46:06;;;;;;;12.23;10.20;;;19.80;45.20;17.30;97823.00;;;;5076435;28;20164;-86